createdAt,value
2018-05-08T00:00:45.289Z,12.54
2018-05-08T00:01:55.038Z,12.5
2018-05-08T00:03:05.044Z,12.5
2018-05-08T00:04:15.054Z,12.55
2018-05-08T00:05:25.073Z,12.48
2018-05-08T00:06:35.085Z,12.5
2018-05-08T00:07:44.830Z,12.43
2018-05-08T00:08:54.658Z,12.48
2018-05-08T00:10:04.723Z,12.43
2018-05-08T00:11:14.731Z,12.4
2018-05-08T00:12:24.485Z,12.44
2018-05-08T00:13:34.225Z,12.39
2018-05-08T00:14:43.970Z,12.37
2018-05-08T00:15:53.987Z,12.39
2018-05-08T00:17:04.011Z,12.4
2018-05-08T00:18:13.763Z,12.28
2018-05-08T00:19:23.837Z,12.32
2018-05-08T00:20:33.864Z,12.25
2018-05-08T00:21:43.870Z,12.17
2018-05-08T00:22:53.881Z,12.11
2018-05-08T00:24:03.625Z,12.02
2018-05-08T00:25:13.636Z,11.96
2018-05-08T00:26:23.380Z,11.86
2018-05-08T00:27:33.393Z,11.83
2018-05-08T00:28:43.133Z,11.81
2018-05-08T00:29:53.149Z,11.74
2018-05-08T00:31:03.179Z,11.68
2018-05-08T00:32:12.922Z,11.62
2018-05-08T00:33:22.666Z,11.7
2018-05-08T00:34:32.678Z,11.59
2018-05-08T00:35:42.691Z,11.49
2018-05-08T00:36:52.178Z,11.55
2018-05-08T00:38:02.263Z,11.45
2018-05-08T00:39:11.739Z,11.4
2018-05-08T00:40:21.773Z,11.51
2018-05-08T00:41:31.521Z,11.51
2018-05-08T00:42:41.643Z,11.44
2018-05-08T00:43:51.657Z,11.53
2018-05-08T00:45:01.408Z,11.49
2018-05-08T00:46:11.155Z,11.43
2018-05-08T00:47:21.168Z,11.38
2018-05-08T00:48:30.912Z,11.45
2018-05-08T00:49:40.924Z,11.43
2018-05-08T00:50:50.400Z,11.43
2018-05-08T00:52:00.406Z,11.43
2018-05-08T00:53:10.145Z,11.38
2018-05-08T00:54:19.353Z,11.41
2018-05-08T00:55:28.826Z,11.41
2018-05-08T00:56:38.572Z,11.37
2018-05-08T00:57:48.585Z,11.35
2018-05-08T00:58:58.597Z,11.37
2018-05-08T01:00:08.342Z,11.38
2018-05-08T01:01:17.823Z,11.33
2018-05-08T01:02:27.304Z,11.33
2018-05-08T01:03:37.333Z,11.37
2018-05-08T01:04:47.339Z,11.41
2018-05-08T01:05:57.172Z,11.43
2018-05-08T01:07:07.196Z,11.4
2018-05-08T01:08:16.670Z,11.4
2018-05-08T01:09:26.414Z,11.43
2018-05-08T01:10:36.169Z,11.44
2018-05-08T01:11:46.034Z,11.38
2018-05-08T01:12:56.047Z,11.4
2018-05-08T01:14:05.521Z,11.4
2018-05-08T01:15:15.531Z,11.43
2018-05-08T01:16:25.541Z,11.37
2018-05-08T01:17:35.640Z,11.44
2018-05-08T01:18:45.650Z,11.35
2018-05-08T01:19:55.394Z,11.44
2018-05-08T01:21:04.870Z,11.4
2018-05-08T01:22:14.891Z,11.45
2018-05-08T01:23:24.905Z,11.45
2018-05-08T01:24:34.915Z,11.43
2018-05-08T01:25:44.926Z,11.4
2018-05-08T01:26:54.944Z,11.44
2018-05-08T01:28:04.157Z,11.4
2018-05-08T01:29:14.252Z,11.43
2018-05-08T01:30:24.259Z,11.38
2018-05-08T01:31:34.440Z,11.44
2018-05-08T01:32:44.355Z,11.38
2018-05-08T01:33:54.099Z,11.43
2018-05-08T01:35:04.109Z,11.43
2018-05-08T01:36:14.119Z,11.38
2018-05-08T01:37:23.868Z,11.37
2018-05-08T01:38:33.615Z,11.38
2018-05-08T01:39:43.099Z,11.45
2018-05-08T01:40:52.851Z,11.4
2018-05-08T01:42:02.604Z,11.44
2018-05-08T01:43:12.380Z,11.44
2018-05-08T01:44:22.205Z,11.4
2018-05-08T01:45:31.688Z,11.41
2018-05-08T01:46:41.430Z,11.34
2018-05-08T01:47:51.445Z,11.3
2018-05-08T01:49:01.197Z,11.18
2018-05-08T01:50:11.218Z,11.23
2018-05-08T01:51:21.231Z,11.15
2018-05-08T01:52:31.252Z,10.98
2018-05-08T01:53:41.270Z,11.01
2018-05-08T01:54:51.017Z,10.94
2018-05-08T01:56:01.031Z,10.84
2018-05-08T01:57:10.783Z,10.83
2018-05-08T01:58:20.888Z,10.67
2018-05-08T01:59:30.894Z,10.76
2018-05-08T02:00:40.639Z,10.79
2018-05-08T02:01:50.653Z,10.65
2018-05-08T02:03:00.661Z,10.69
2018-05-08T02:04:10.407Z,10.61
2018-05-08T02:05:20.155Z,10.67
2018-05-08T02:06:30.167Z,10.67
2018-05-08T02:07:40.179Z,10.71
2018-05-08T02:08:50.188Z,10.69
2018-05-08T02:10:00.199Z,10.75
2018-05-08T02:11:09.947Z,10.79
2018-05-08T02:12:19.705Z,10.89
2018-05-08T02:13:29.444Z,10.87
2018-05-08T02:14:39.455Z,10.89
2018-05-08T02:15:49.470Z,10.92
2018-05-08T02:16:59.219Z,10.89
2018-05-08T02:18:08.975Z,10.86
2018-05-08T02:19:18.714Z,10.89
2018-05-08T02:20:28.978Z,10.82
2018-05-08T02:21:39.153Z,10.92
2018-05-08T02:22:48.397Z,10.83
2018-05-08T02:23:58.186Z,10.84
2018-05-08T02:25:07.939Z,10.83
2018-05-08T02:26:17.416Z,10.71
2018-05-08T02:27:27.213Z,10.61
2018-05-08T02:28:37.018Z,10.55
2018-05-08T02:29:46.499Z,10.51
2018-05-08T02:30:56.240Z,10.45
2018-05-08T02:32:05.462Z,10.51
2018-05-08T02:33:15.036Z,10.42
2018-05-08T02:34:25.193Z,10.45
2018-05-08T02:35:35.242Z,10.46
2018-05-08T02:36:45.261Z,10.43
2018-05-08T02:37:55.002Z,10.42
2018-05-08T02:39:04.764Z,10.34
2018-05-08T02:40:14.783Z,10.45
2018-05-08T02:41:24.533Z,10.33
2018-05-08T02:42:34.557Z,10.34
2018-05-08T02:43:44.036Z,10.36
2018-05-08T02:44:53.778Z,10.36
2018-05-08T02:46:03.263Z,10.33
2018-05-08T02:47:13.013Z,10.31
2018-05-08T02:48:23.049Z,10.31
2018-05-08T02:49:32.269Z,10.33
2018-05-08T02:50:41.754Z,10.27
2018-05-08T02:51:51.508Z,10.23
2018-05-08T02:53:01.517Z,10.25
2018-05-08T02:54:11.268Z,10.21
2018-05-08T02:55:20.751Z,10.31
2018-05-08T02:56:30.518Z,10.36
2018-05-08T02:57:40.280Z,10.25
2018-05-08T02:58:49.758Z,10.24
2018-05-08T02:59:59.512Z,10.27
2018-05-08T03:03:41.960Z,10.23
2018-05-08T03:04:51.444Z,10.27
2018-05-08T03:06:01.477Z,10.25
2018-05-08T03:07:11.508Z,10.24
2018-05-08T03:08:21.519Z,10.27
2018-05-08T03:09:31.004Z,10.21
2018-05-08T03:10:40.751Z,10.17
2018-05-08T03:11:50.782Z,10.18
2018-05-08T03:13:00.270Z,10.13
2018-05-08T03:14:10.024Z,10.15
2018-05-08T03:15:19.773Z,10.15
2018-05-08T03:16:29.519Z,10.17
2018-05-08T03:17:38.994Z,10.18
2018-05-08T03:18:48.739Z,10.18
2018-05-08T03:19:58.758Z,10.15
2018-05-08T03:21:08.246Z,10.15
2018-05-08T03:22:18.390Z,9.97
2018-05-08T03:23:28.503Z,10.13
2018-05-08T03:24:37.974Z,10.12
2018-05-08T03:25:47.712Z,10.09
2018-05-08T03:26:57.455Z,10.1
2018-05-08T03:28:07.202Z,10.1
2018-05-08T03:29:16.954Z,10.13
2018-05-08T03:30:26.702Z,10.03
2018-05-08T03:31:36.459Z,10
2018-05-08T03:32:46.003Z,10.06
2018-05-08T03:33:55.479Z,10.1
2018-05-08T03:35:05.232Z,10.12
2018-05-08T03:36:15.258Z,10.09
2018-05-08T03:37:25.266Z,9.99
2018-05-08T03:38:35.281Z,10.02
2018-05-08T03:39:45.296Z,9.97
2018-05-08T03:40:54.775Z,9.95
2018-05-08T03:42:04.791Z,10.02
2018-05-08T03:43:14.831Z,10.05
2018-05-08T03:44:24.839Z,9.99
2018-05-08T03:45:34.320Z,10.03
2018-05-08T03:46:44.358Z,10
2018-05-08T03:47:54.115Z,10.05
2018-05-08T03:49:03.863Z,10.15
2018-05-08T03:50:13.869Z,10.12
2018-05-08T03:51:23.884Z,10.09
2018-05-08T03:52:33.934Z,10.09
2018-05-08T03:53:43.943Z,10.12
2018-05-08T03:54:53.952Z,10.09
2018-05-08T03:56:03.693Z,9.97
2018-05-08T03:57:13.438Z,9.99
2018-05-08T03:58:23.567Z,9.91
2018-05-08T03:59:33.589Z,9.94
2018-05-08T04:00:43.597Z,9.92
2018-05-08T04:01:53.609Z,9.9
2018-05-08T04:03:03.626Z,9.84
2018-05-08T04:04:13.642Z,9.81
2018-05-08T04:05:23.663Z,9.81
2018-05-08T04:06:33.670Z,9.8
2018-05-08T04:07:43.682Z,9.88
2018-05-08T04:08:53.424Z,9.84
2018-05-08T04:10:03.179Z,9.92
2018-05-08T04:11:12.390Z,9.88
2018-05-08T04:12:22.137Z,9.9
2018-05-08T04:13:31.617Z,9.92
2018-05-08T04:14:41.361Z,9.97
2018-05-08T04:15:51.101Z,9.99
2018-05-08T04:17:01.140Z,9.99
2018-05-08T04:18:11.161Z,9.94
2018-05-08T04:19:20.913Z,10.03
2018-05-08T04:20:30.657Z,10
2018-05-08T04:21:40.670Z,10.09
2018-05-08T04:22:50.684Z,10.17
2018-05-08T04:24:00.709Z,10.13
2018-05-08T04:25:10.767Z,10.17
2018-05-08T04:26:20.239Z,10.2
2018-05-08T04:27:29.981Z,10.21
2018-05-08T04:28:40.083Z,10.17
2018-05-08T04:29:50.098Z,10.27
2018-05-08T04:31:00.108Z,10.24
2018-05-08T04:32:10.128Z,10.36
2018-05-08T04:33:20.145Z,10.41
2018-05-08T04:34:30.278Z,10.34
2018-05-08T04:35:40.294Z,10.49
2018-05-08T04:36:50.308Z,10.55
2018-05-08T04:37:59.787Z,10.53
2018-05-08T04:39:09.266Z,10.62
2018-05-08T04:40:19.013Z,10.68
2018-05-08T04:41:29.032Z,10.82
2018-05-08T04:42:38.772Z,10.92
2018-05-08T04:43:48.788Z,10.87
2018-05-08T04:44:58.263Z,10.97
2018-05-08T04:46:08.280Z,11.01
2018-05-08T04:47:18.345Z,11.1
2018-05-08T04:48:28.465Z,11.1
2018-05-08T04:49:38.216Z,11.19
2018-05-08T04:50:47.959Z,11.31
2018-05-08T04:51:57.975Z,11.26
2018-05-08T04:53:07.457Z,11.35
2018-05-08T04:54:17.204Z,11.41
2018-05-08T04:55:27.215Z,11.41
2018-05-08T04:56:37.222Z,11.43
2018-05-08T04:57:46.998Z,11.51
2018-05-08T04:58:56.747Z,11.45
2018-05-08T05:00:06.223Z,11.56
2018-05-08T05:01:16.245Z,11.52
2018-05-08T05:02:26.252Z,11.56
2018-05-08T05:03:36.268Z,11.62
2018-05-08T05:04:46.287Z,11.55
2018-05-08T05:05:56.301Z,11.53
2018-05-08T05:07:06.557Z,11.58
2018-05-08T05:08:16.031Z,11.6
2018-05-08T05:09:25.553Z,11.65
2018-05-08T05:10:35.045Z,11.67
2018-05-08T05:11:45.055Z,11.74
2018-05-08T05:12:54.529Z,11.88
2018-05-08T05:14:04.325Z,11.83
2018-05-08T05:15:14.071Z,11.99
2018-05-08T05:16:23.555Z,11.96
2018-05-08T05:17:33.564Z,11.97
2018-05-08T05:18:43.319Z,12.02
2018-05-08T05:19:52.799Z,12
2018-05-08T05:21:02.818Z,11.97
2018-05-08T05:22:12.303Z,12
2018-05-08T05:23:22.418Z,11.99
2018-05-08T05:24:32.592Z,12.11
2018-05-08T05:25:42.543Z,12.12
2018-05-08T05:26:52.285Z,12.18
2018-05-08T05:28:01.762Z,12.2
2018-05-08T05:29:11.612Z,12.15
2018-05-08T05:30:21.632Z,12.21
2018-05-08T05:31:31.384Z,12.21
2018-05-08T05:32:40.598Z,12.21
2018-05-08T05:33:50.346Z,12.18
2018-05-08T05:35:00.088Z,12.05
2018-05-08T05:36:10.099Z,11.86
2018-05-08T05:37:19.574Z,11.76
2018-05-08T05:38:28.783Z,11.56
2018-05-08T05:39:38.808Z,11.48
2018-05-08T05:40:48.608Z,11.51
2018-05-08T05:41:58.369Z,11.51
2018-05-08T05:43:07.849Z,11.49
2018-05-08T05:44:17.622Z,11.52
2018-05-08T05:45:27.364Z,11.6
2018-05-08T05:46:37.375Z,11.56
2018-05-08T05:47:47.118Z,11.58
2018-05-08T05:48:56.861Z,11.6
2018-05-08T05:50:06.649Z,11.67
2018-05-08T05:51:16.394Z,11.7
2018-05-08T05:52:26.415Z,11.7
2018-05-08T05:53:36.438Z,11.74
2018-05-08T05:54:46.534Z,11.65
2018-05-08T05:55:56.546Z,11.78
2018-05-08T05:57:06.029Z,11.65
2018-05-08T05:58:15.781Z,11.6
2018-05-08T05:59:25.797Z,11.6
2018-05-08T06:00:35.803Z,11.65
2018-05-08T06:01:45.816Z,11.62
2018-05-08T06:02:55.558Z,11.77
2018-05-08T06:04:05.656Z,11.77
2018-05-08T06:05:15.676Z,11.85
2018-05-08T06:06:25.598Z,11.89
2018-05-08T06:07:35.807Z,11.88
2018-05-08T06:08:45.016Z,11.97
2018-05-08T06:09:54.760Z,12.03
2018-05-08T06:11:04.772Z,12.14
2018-05-08T06:12:14.801Z,12.14
2018-05-08T06:13:24.549Z,12.12
2018-05-08T06:14:34.296Z,12.23
2018-05-08T06:15:44.037Z,12.17
2018-05-08T06:16:54.054Z,12.18
2018-05-08T06:18:03.803Z,12.21
2018-05-08T06:19:13.818Z,12.26
2018-05-08T06:20:23.624Z,12.2
2018-05-08T06:21:33.636Z,12.12
2018-05-08T06:22:43.451Z,12.03
2018-05-08T06:23:53.463Z,11.96
2018-05-08T06:25:03.209Z,11.96
2018-05-08T06:26:13.241Z,11.97
2018-05-08T06:27:22.775Z,11.89
2018-05-08T06:28:32.122Z,11.83
2018-05-08T06:29:42.002Z,11.78
2018-05-08T06:30:51.746Z,11.8
2018-05-08T06:32:01.791Z,11.95
2018-05-08T06:33:11.320Z,11.93
2018-05-08T06:34:21.521Z,11.91
2018-05-08T06:35:31.154Z,11.96
2018-05-08T06:36:41.216Z,12
2018-05-08T06:37:51.236Z,12.15
2018-05-08T06:39:01.375Z,12.26
2018-05-08T06:40:11.375Z,12.25
2018-05-08T06:41:21.119Z,12.26
2018-05-08T06:42:30.860Z,12.35
2018-05-08T06:43:40.604Z,12.33
2018-05-08T06:44:50.762Z,12.37
2018-05-08T06:46:00.236Z,12.4
2018-05-08T06:47:09.976Z,12.36
2018-05-08T06:48:19.758Z,12.32
2018-05-08T06:49:29.781Z,12.33
2018-05-08T06:50:39.904Z,12.54
2018-05-08T06:51:49.925Z,12.51
2018-05-08T06:52:59.673Z,12.51
2018-05-08T06:54:09.689Z,12.57
2018-05-08T06:55:19.797Z,12.63
2018-05-08T06:56:29.276Z,12.78
2018-05-08T06:57:39.287Z,12.88
2018-05-08T06:58:49.047Z,13.01
2018-05-08T06:59:58.793Z,12.88
2018-05-08T07:01:08.545Z,12.9
2018-05-08T07:02:18.578Z,12.91
2018-05-08T07:03:28.590Z,12.88
2018-05-08T07:04:38.064Z,12.94
2018-05-08T07:05:48.088Z,12.99
2018-05-08T07:06:58.114Z,13.09
2018-05-08T07:08:07.865Z,13.19
2018-05-08T07:09:17.661Z,13.3
2018-05-08T07:10:27.378Z,13.27
2018-05-08T07:11:37.393Z,13.19
2018-05-08T07:12:47.144Z,13.17
2018-05-08T07:13:57.167Z,13.13
2018-05-08T07:15:06.459Z,13.09
2018-05-08T07:16:16.666Z,13.09
2018-05-08T07:17:26.719Z,13.09
2018-05-08T07:18:36.788Z,13.19
2018-05-08T07:19:46.539Z,13.24
2018-05-08T07:20:56.290Z,13.3
2018-05-08T07:22:06.308Z,13.3
2018-05-08T07:23:15.519Z,13.43
2018-05-08T07:24:25.538Z,13.55
2018-05-08T07:25:35.283Z,13.62
2018-05-08T07:26:44.766Z,13.79
2018-05-08T07:27:54.511Z,13.85
2018-05-08T07:29:04.259Z,13.97
2018-05-08T07:30:14.099Z,14.08
2018-05-08T07:31:23.856Z,14.33
2018-05-08T07:32:33.610Z,14.41
2018-05-08T07:33:43.627Z,14.48
2018-05-08T07:34:53.381Z,14.49
2018-05-08T07:36:03.368Z,14.62
2018-05-08T07:37:12.957Z,14.78
2018-05-08T07:38:22.664Z,14.89
2018-05-08T07:39:32.782Z,14.96
2018-05-08T07:40:42.873Z,14.96
2018-05-08T07:41:52.891Z,15.08
2018-05-08T07:43:03.208Z,15.12
2018-05-08T07:44:12.704Z,15.23
2018-05-08T07:45:22.512Z,15.26
2018-05-08T07:46:32.639Z,15.27
2018-05-08T07:47:42.663Z,15.39
2018-05-08T07:48:52.143Z,15.44
2018-05-08T07:50:02.157Z,15.51
2018-05-08T07:51:12.173Z,15.52
2018-05-08T07:52:22.189Z,15.63
2018-05-08T07:53:32.202Z,15.65
2018-05-08T07:54:42.263Z,15.66
2018-05-08T07:55:52.276Z,15.75
2018-05-08T07:57:02.021Z,15.81
2018-05-08T07:58:12.034Z,15.7
2018-05-08T07:59:22.048Z,15.85
2018-05-08T08:00:32.076Z,15.81
2018-05-08T08:01:42.098Z,15.83
2018-05-08T08:02:51.839Z,15.94
2018-05-08T08:04:01.967Z,15.98
2018-05-08T08:05:11.461Z,15.88
2018-05-08T08:06:21.486Z,16.08
2018-05-08T08:07:31.390Z,16.09
2018-05-08T08:08:41.659Z,16.05
2018-05-08T08:09:51.149Z,16.13
2018-05-08T08:11:00.641Z,16.21
2018-05-08T08:12:10.386Z,16.26
2018-05-08T08:13:19.600Z,16.18
2018-05-08T08:14:29.076Z,16.25
2018-05-08T08:15:38.824Z,16.25
2018-05-08T08:16:48.302Z,16.37
2018-05-08T08:17:58.075Z,16.36
2018-05-08T08:19:07.829Z,16.39
2018-05-08T08:20:17.577Z,16.43
2018-05-08T08:21:27.327Z,16.46
2018-05-08T08:22:37.089Z,16.41
2018-05-08T08:23:46.722Z,16.5
2018-05-08T08:24:57.000Z,16.57
2018-05-08T08:26:06.215Z,16.58
2018-05-08T08:27:16.237Z,16.54
2018-05-08T08:28:25.989Z,16.65
2018-05-08T08:29:36.110Z,16.64
2018-05-08T08:30:46.039Z,16.61
2018-05-08T08:31:56.063Z,16.58
2018-05-08T08:33:05.810Z,16.72
2018-05-08T08:34:15.297Z,16.74
2018-05-08T08:35:25.157Z,16.8
2018-05-08T08:36:35.172Z,16.72
2018-05-08T08:37:44.925Z,16.68
2018-05-08T08:38:54.937Z,16.69
2018-05-08T08:40:04.948Z,16.77
2018-05-08T08:41:14.698Z,16.72
2018-05-08T08:42:24.830Z,16.69
2018-05-08T08:43:34.576Z,16.73
2018-05-08T08:44:44.058Z,16.86
2018-05-08T08:45:53.804Z,16.86
2018-05-08T08:47:03.288Z,16.94
2018-05-08T08:48:13.035Z,17.02
2018-05-08T08:49:22.515Z,17.07
2018-05-08T08:50:32.539Z,17.23
2018-05-08T08:51:42.562Z,17.17
2018-05-08T08:52:52.331Z,17.32
2018-05-08T08:54:02.081Z,17.47
2018-05-08T08:55:12.109Z,17.49
2018-05-08T08:56:22.145Z,17.57
2018-05-08T08:57:32.163Z,17.76
2018-05-08T08:58:41.643Z,17.72
2018-05-08T08:59:51.125Z,17.8
2018-05-08T09:01:01.144Z,17.94
2018-05-08T09:02:11.159Z,18.08
2018-05-08T09:03:20.908Z,18.11
2018-05-08T09:04:30.666Z,18.12
2018-05-08T09:05:40.692Z,18.3
2018-05-08T09:06:49.641Z,18.34
2018-05-08T09:07:59.134Z,18.31
2018-05-08T09:09:08.630Z,18.51
2018-05-08T09:10:18.644Z,18.43
2018-05-08T09:11:28.791Z,18.48
2018-05-08T09:12:38.269Z,18.53
2018-05-08T09:13:47.752Z,18.55
2018-05-08T09:14:57.778Z,18.6
2018-05-08T09:16:07.796Z,18.73
2018-05-08T09:17:17.545Z,18.7
2018-05-08T09:18:27.295Z,18.73
2018-05-08T09:19:37.043Z,18.82
2018-05-08T09:20:46.543Z,18.74
2018-05-08T09:21:56.556Z,18.94
2018-05-08T09:23:06.581Z,18.86
2018-05-08T09:24:16.605Z,18.92
2018-05-08T09:25:26.097Z,18.86
2018-05-08T09:26:35.858Z,18.98
2018-05-08T09:27:46.023Z,19.01
2018-05-08T09:28:56.057Z,18.92
2018-05-08T09:30:05.807Z,19.04
2018-05-08T09:31:15.555Z,19.08
2018-05-08T09:32:25.303Z,19.11
2018-05-08T09:33:35.056Z,19.09
2018-05-08T09:34:44.800Z,19.17
2018-05-08T09:35:54.823Z,19.23
2018-05-08T09:37:04.840Z,19.23
2018-05-08T09:38:14.864Z,19.39
2018-05-08T09:39:24.616Z,19.39
2018-05-08T09:40:34.636Z,19.45
2018-05-08T09:41:44.648Z,19.47
2018-05-08T09:42:54.129Z,19.49
2018-05-08T09:44:03.914Z,19.6
2018-05-08T09:45:14.037Z,19.63
2018-05-08T09:46:23.816Z,19.6
2018-05-08T09:47:33.584Z,19.74
2018-05-08T09:48:43.612Z,19.85
2018-05-08T09:49:53.781Z,19.81
2018-05-08T09:51:03.802Z,19.96
2018-05-08T09:52:13.297Z,19.87
2018-05-08T09:53:23.048Z,20
2018-05-08T09:54:32.809Z,20.08
2018-05-08T09:55:42.849Z,20.14
2018-05-08T09:56:52.605Z,20.18
2018-05-08T09:58:02.636Z,20.24
2018-05-08T09:59:12.662Z,20.29
2018-05-08T10:00:22.410Z,20.33
2018-05-08T10:01:32.167Z,20.34
2018-05-08T10:02:42.245Z,20.42
2018-05-08T10:03:51.731Z,20.34
2018-05-08T10:05:01.481Z,20.42
2018-05-08T10:06:11.508Z,20.44
2018-05-08T10:07:21.257Z,20.5
2018-05-08T10:08:30.740Z,20.53
2018-05-08T10:09:40.492Z,20.44
2018-05-08T10:10:49.977Z,20.55
2018-05-08T10:12:00.015Z,20.66
2018-05-08T10:13:09.498Z,20.7
2018-05-08T10:14:19.253Z,20.71
2018-05-08T10:15:29.005Z,20.8
2018-05-08T10:16:39.028Z,20.85
2018-05-08T10:17:48.780Z,20.92
2018-05-08T10:18:58.558Z,20.93
2018-05-08T10:20:08.309Z,21.04
2018-05-08T10:21:18.331Z,21.13
2018-05-08T10:22:28.354Z,21.17
2018-05-08T10:23:38.112Z,21.15
2018-05-08T10:24:48.135Z,21.23
2018-05-08T10:25:57.885Z,21.26
2018-05-08T10:27:07.920Z,21.25
2018-05-08T10:28:17.954Z,21.2
2018-05-08T10:29:28.008Z,21.25
2018-05-08T10:30:38.025Z,21.35
2018-05-08T10:31:47.338Z,21.4
2018-05-08T10:32:57.544Z,21.33
2018-05-08T10:34:07.353Z,21.45
2018-05-08T10:35:17.105Z,21.53
2018-05-08T10:36:27.137Z,21.54
2018-05-08T10:37:37.036Z,21.59
2018-05-08T10:38:46.795Z,21.69
2018-05-08T10:39:56.822Z,21.68
2018-05-08T10:41:06.576Z,21.78
2018-05-08T10:42:16.608Z,21.85
2018-05-08T10:43:26.657Z,21.84
2018-05-08T10:44:36.673Z,21.85
2018-05-08T10:45:46.425Z,21.94
2018-05-08T10:46:56.444Z,21.91
2018-05-08T10:48:06.207Z,21.91
2018-05-08T10:49:16.220Z,22.03
2018-05-08T10:50:26.250Z,22.22
2018-05-08T10:51:35.478Z,22.25
2018-05-08T10:52:45.500Z,22.25
2018-05-08T10:53:54.988Z,22.47
2018-05-08T10:55:05.125Z,22.51
2018-05-08T10:56:14.880Z,22.51
2018-05-08T10:57:24.636Z,22.62
2018-05-08T10:58:34.421Z,22.7
2018-05-08T10:59:44.175Z,22.65
2018-05-08T11:00:54.204Z,22.81
2018-05-08T11:02:03.959Z,22.83
2018-05-08T11:03:13.711Z,22.88
2018-05-08T11:04:23.734Z,23.01
2018-05-08T11:05:33.482Z,22.99
2018-05-08T11:06:43.243Z,23.11
2018-05-08T11:07:53.066Z,23.13
2018-05-08T11:09:03.161Z,23.16
2018-05-08T11:10:12.645Z,23.25
2018-05-08T11:11:22.670Z,23.28
2018-05-08T11:12:32.733Z,23.32
2018-05-08T11:13:42.957Z,23.4
2018-05-08T11:14:52.708Z,23.42
2018-05-08T11:16:02.467Z,23.56
2018-05-08T11:17:12.222Z,23.56
2018-05-08T11:18:21.979Z,23.71
2018-05-08T11:19:32.026Z,23.95
2018-05-08T11:20:41.842Z,24.11
2018-05-08T11:21:51.328Z,24.5
2018-05-08T11:23:01.366Z,24.78
2018-05-08T11:24:11.115Z,25.11
2018-05-08T11:25:20.873Z,25.49
2018-05-08T11:26:31.117Z,25.89
2018-05-08T11:27:41.078Z,26.13
2018-05-08T11:28:51.103Z,26.49
2018-05-08T11:30:01.119Z,26.82
2018-05-08T11:31:10.609Z,27.23
2018-05-08T11:32:19.830Z,27.58
2018-05-08T11:33:29.854Z,28.1
2018-05-08T11:34:39.613Z,28.46
2018-05-08T11:35:49.633Z,28.8
2018-05-08T11:36:59.397Z,29.3
2018-05-08T11:38:08.642Z,29.47
2018-05-08T11:39:18.844Z,29.86
2018-05-08T11:40:28.888Z,30.01
2018-05-08T11:41:38.114Z,30.36
2018-05-08T11:42:48.139Z,30.81
2018-05-08T11:43:57.949Z,31.08
2018-05-08T11:45:07.447Z,31.39
2018-05-08T11:46:17.212Z,31.78
2018-05-08T11:47:26.704Z,32.07
2018-05-08T11:48:36.731Z,32.34
2018-05-08T11:49:46.224Z,32.48
2018-05-08T11:50:56.062Z,32.57
2018-05-08T11:52:05.824Z,32.81
2018-05-08T11:53:15.685Z,32.93
2018-05-08T11:54:25.720Z,32.98
2018-05-08T11:55:35.492Z,32.86
2018-05-08T11:56:45.533Z,32.88
2018-05-08T11:57:55.308Z,32.97
2018-05-08T11:59:05.357Z,32.73
2018-05-08T12:00:15.118Z,32.45
2018-05-08T12:01:24.615Z,32.59
2018-05-08T12:02:34.466Z,32.61
2018-05-08T12:03:44.371Z,32.05
2018-05-08T12:04:54.410Z,32.35
2018-05-08T12:06:04.449Z,32.54
2018-05-08T12:07:14.345Z,32.59
2018-05-08T12:08:24.382Z,32.73
2018-05-08T12:09:34.414Z,32.88
2018-05-08T12:10:44.499Z,32.91
2018-05-08T12:11:54.537Z,33.16
2018-05-08T12:13:04.303Z,33.53
2018-05-08T12:14:14.068Z,33.47
2018-05-08T12:15:23.571Z,33.66
2018-05-08T12:16:33.610Z,33.94
2018-05-08T12:17:43.404Z,33.88
2018-05-08T12:18:53.437Z,33.92
2018-05-08T12:20:03.493Z,34.1
2018-05-08T12:21:13.539Z,34.13
2018-05-08T12:22:23.306Z,34.33
2018-05-08T12:23:32.816Z,34.4
2018-05-08T12:24:42.314Z,34.58
2018-05-08T12:25:51.815Z,34.73
2018-05-08T12:27:01.857Z,34.19
2018-05-08T12:28:11.357Z,33.92
2018-05-08T12:29:21.125Z,33.19
2018-05-08T12:30:30.893Z,32.61
2018-05-08T12:31:41.056Z,32.3
2018-05-08T12:32:50.829Z,32
2018-05-08T12:34:00.864Z,32.15
2018-05-08T12:35:10.642Z,31.77
2018-05-08T12:36:19.873Z,31.64
2018-05-08T12:37:29.641Z,30.99
2018-05-08T12:38:39.404Z,30.71
2018-05-08T12:39:49.176Z,30.33
2018-05-08T12:40:58.943Z,30.21
2018-05-08T12:42:09.221Z,29.64
2018-05-08T12:43:19.417Z,29.16
2018-05-08T12:44:29.450Z,29.02
2018-05-08T12:45:39.783Z,28.71
2018-05-08T12:46:49.009Z,28.35
2018-05-08T12:47:58.514Z,27.93
2018-05-08T12:49:08.556Z,27.9
2018-05-08T12:50:18.619Z,27.45
2018-05-08T12:51:28.721Z,27.08
2018-05-08T12:52:38.507Z,26.86
2018-05-08T12:53:48.546Z,26.71
2018-05-08T12:54:58.050Z,26.88
2018-05-08T12:56:07.727Z,27.11
2018-05-08T12:57:17.294Z,27.15
2018-05-08T12:58:27.326Z,27.2
2018-05-08T12:59:37.366Z,26.64
2018-05-08T13:00:46.886Z,26.34
2018-05-08T13:01:56.385Z,26.39
2018-05-08T13:03:06.542Z,26.48
2018-05-08T13:04:16.309Z,26.19
2018-05-08T13:05:26.285Z,26.22
2018-05-08T13:06:36.365Z,26.11
2018-05-08T13:07:46.135Z,26.06
2018-05-08T13:08:55.634Z,26.03
2018-05-08T13:10:05.687Z,26.11
2018-05-08T13:11:15.455Z,26.07
2018-05-08T13:12:25.561Z,26.08
2018-05-08T13:13:35.318Z,25.95
2018-05-08T13:14:45.083Z,25.61
2018-05-08T13:15:55.108Z,25.33
2018-05-08T13:17:04.601Z,25.39
2018-05-08T13:18:14.735Z,25.36
2018-05-08T13:19:24.696Z,25.24
2018-05-08T13:20:34.191Z,25.09
2018-05-08T13:21:43.952Z,25.12
2018-05-08T13:22:53.992Z,24.75
2018-05-08T13:24:03.753Z,24.59
2018-05-08T13:25:13.249Z,24.66
2018-05-08T13:26:23.290Z,24.88
2018-05-08T13:27:33.057Z,24.88
2018-05-08T13:28:42.552Z,24.61
2018-05-08T13:29:52.313Z,24.61
2018-05-08T13:31:02.203Z,24.56
2018-05-08T13:32:11.688Z,24.41
2018-05-08T13:33:21.185Z,24.32
2018-05-08T13:34:31.213Z,24.32
2018-05-08T13:35:41.249Z,24.71
2018-05-08T13:36:51.098Z,24.96
2018-05-08T13:38:00.861Z,25.19
2018-05-08T13:39:10.982Z,25.63
2018-05-08T13:40:21.049Z,25.99
2018-05-08T13:41:30.809Z,25.99
2018-05-08T13:42:39.763Z,25.98
2018-05-08T13:43:49.278Z,25.95
2018-05-08T13:44:59.054Z,25.99
2018-05-08T13:46:08.551Z,25.98
2018-05-08T13:47:18.042Z,25.55
2018-05-08T13:48:27.806Z,25.44
2018-05-08T13:49:37.848Z,25.39
2018-05-08T13:50:47.616Z,25.46
2018-05-08T13:51:56.839Z,25.49
2018-05-08T13:53:06.596Z,25.7
2018-05-08T13:54:15.817Z,25.78
2018-05-08T13:55:25.848Z,25.74
2018-05-08T13:56:35.338Z,25.89
2018-05-08T13:57:45.449Z,26.15
2018-05-08T13:58:55.212Z,26.24
2018-05-08T14:00:04.970Z,26.19
2018-05-08T14:01:14.729Z,26.59
2018-05-08T14:02:24.772Z,26.6
2018-05-08T14:03:34.531Z,26.81
2018-05-08T14:04:44.293Z,26.83
2018-05-08T14:05:54.053Z,26.82
2018-05-08T14:07:04.003Z,26.88
2018-05-08T14:08:13.772Z,26.74
2018-05-08T14:09:23.802Z,26.66
2018-05-08T14:10:33.833Z,26.66
2018-05-08T14:11:43.870Z,26.79
2018-05-08T14:12:53.373Z,26.53
2018-05-08T14:14:02.932Z,26.63
2018-05-08T14:15:12.425Z,26.81
2018-05-08T14:16:22.519Z,26.98
2018-05-08T14:17:32.011Z,26.82
2018-05-08T14:18:41.870Z,26.97
2018-05-08T14:19:51.893Z,27.11
2018-05-08T14:21:01.653Z,27.05
2018-05-08T14:22:11.416Z,26.97
2018-05-08T14:23:21.189Z,27.15
2018-05-08T14:24:30.954Z,27.28
2018-05-08T14:25:40.980Z,27.33
2018-05-08T14:26:51.010Z,27.28
2018-05-08T14:28:01.034Z,27.25
2018-05-08T14:29:10.801Z,27.2
2018-05-08T14:30:20.086Z,27.01
2018-05-08T14:31:30.087Z,27.1
2018-05-08T14:32:40.335Z,27.25
2018-05-08T14:33:50.379Z,27.25
2018-05-08T14:35:00.415Z,27.25
2018-05-08T14:36:10.181Z,27.73
2018-05-08T14:37:20.219Z,27.85
2018-05-08T14:38:30.176Z,28.04
2018-05-08T14:39:40.436Z,28.06
2018-05-08T14:40:50.469Z,28.1
2018-05-08T14:42:00.311Z,27.98
2018-05-08T14:43:10.072Z,28.1
2018-05-08T14:44:20.107Z,28.25
2018-05-08T14:45:29.597Z,28.12
2018-05-08T14:46:39.363Z,28.45
2018-05-08T14:47:49.129Z,28.46
2018-05-08T14:48:58.895Z,28.27
2018-05-08T14:50:08.661Z,28.27
2018-05-08T14:51:18.694Z,28.47
2018-05-08T14:52:28.720Z,28.72
2018-05-08T14:53:38.478Z,29.02
2018-05-08T14:54:48.250Z,29.03
2018-05-08T14:55:58.011Z,28.94
2018-05-08T14:57:08.050Z,28.84
2018-05-08T14:58:17.288Z,28.87
2018-05-08T14:59:27.330Z,28.97
2018-05-08T15:00:36.829Z,29.05
2018-05-08T15:01:46.318Z,29.12
2018-05-08T15:02:56.364Z,29.22
2018-05-08T15:04:06.401Z,29.05
2018-05-08T15:05:15.983Z,28.87
2018-05-08T15:06:26.010Z,28.62